JST830 YSSY-YBBN
Flight info
| Callsign | JST830 |
|---|---|
| Flight time | N/A |
| Altitude | 39000 |
| Route | TESAT H252 OLSEM Y193 BANDA H252 BN |
| Aircraft | A320/M-SDE3FGHIRWY/LB1 |
Departure
| Time | 2026-05-07 23:44 |
|---|---|
| Airport | Sydney Kingsford Smith International Airport (YSSY) |
Arrival
| Time | N/A |
|---|---|
| Airport | Brisbane International Airport (YBBN) |
| Time | Latitude | Longitude | Altitude | Speed | Heading |
|---|---|---|---|---|---|
| 2026-05-07 23:06 | -33.93563 | 151.17760 | 29 ft | 0 kts | 281° |
| 2026-05-07 23:29 | -33.93566 | 151.17777 | 30 ft | 4 kts | 283° |
| 2026-05-07 23:29 | -33.93572 | 151.17808 | 30 ft | 4 kts | 274° |
| 2026-05-07 23:30 | -33.93571 | 151.17829 | 30 ft | 4 kts | 192° |
| 2026-05-07 23:30 | -33.93585 | 151.17826 | 30 ft | 4 kts | 190° |
| 2026-05-07 23:30 | -33.93609 | 151.17820 | 30 ft | 2 kts | 191° |
| 2026-05-07 23:30 | -33.93611 | 151.17820 | 30 ft | 0 kts | 191° |
| 2026-05-07 23:33 | -33.93613 | 151.17820 | 30 ft | 2 kts | 191° |
| 2026-05-07 23:33 | -33.93640 | 151.17813 | 30 ft | 6 kts | 191° |
| 2026-05-07 23:33 | -33.93687 | 151.17800 | 30 ft | 8 kts | 194° |
| 2026-05-07 23:34 | -33.93753 | 151.17780 | 30 ft | 11 kts | 193° |
| 2026-05-07 23:34 | -33.93839 | 151.17764 | 30 ft | 14 kts | 177° |
| 2026-05-07 23:34 | -33.93943 | 151.17790 | 29 ft | 17 kts | 167° |
| 2026-05-07 23:34 | -33.94066 | 151.17824 | 29 ft | 20 kts | 168° |
| 2026-05-07 23:35 | -33.94205 | 151.17858 | 30 ft | 21 kts | 168° |
| 2026-05-07 23:35 | -33.94345 | 151.17894 | 30 ft | 16 kts | 167° |
| 2026-05-07 23:35 | -33.94446 | 151.17907 | 30 ft | 15 kts | 195° |
| 2026-05-07 23:35 | -33.94554 | 151.17890 | 30 ft | 17 kts | 168° |
| 2026-05-07 23:36 | -33.94677 | 151.17923 | 30 ft | 19 kts | 168° |
| 2026-05-07 23:36 | -33.94812 | 151.17957 | 30 ft | 21 kts | 168° |
| 2026-05-07 23:36 | -33.94961 | 151.17995 | 30 ft | 23 kts | 168° |
| 2026-05-07 23:36 | -33.95086 | 151.18046 | 30 ft | 16 kts | 133° |
| 2026-05-07 23:37 | -33.95085 | 151.18183 | 30 ft | 18 kts | 78° |
| 2026-05-07 23:37 | -33.95057 | 151.18339 | 30 ft | 19 kts | 78° |
| 2026-05-07 23:37 | -33.95044 | 151.18415 | 30 ft | 0 kts | 78° |
| 2026-05-07 23:38 | -33.95044 | 151.18416 | 30 ft | 1 kts | 78° |
| 2026-05-07 23:39 | -33.95040 | 151.18446 | 30 ft | 6 kts | 86° |
| 2026-05-07 23:39 | -33.95075 | 151.18511 | 30 ft | 13 kts | 144° |
| 2026-05-07 23:39 | -33.95163 | 151.18596 | 30 ft | 18 kts | 137° |
| 2026-05-07 23:39 | -33.95268 | 151.18696 | 30 ft | 20 kts | 152° |
| 2026-05-07 23:40 | -33.95412 | 151.18746 | 30 ft | 23 kts | 168° |
| 2026-05-07 23:40 | -33.95576 | 151.18787 | 30 ft | 25 kts | 167° |
| 2026-05-07 23:40 | -33.95755 | 151.18835 | 30 ft | 28 kts | 167° |
| 2026-05-07 23:40 | -33.95953 | 151.18884 | 30 ft | 30 kts | 167° |
| 2026-05-07 23:41 | -33.96168 | 151.18940 | 30 ft | 33 kts | 167° |
| 2026-05-07 23:41 | -33.96398 | 151.19000 | 30 ft | 35 kts | 168° |
| 2026-05-07 23:41 | -33.96604 | 151.19059 | 30 ft | 25 kts | 167° |
| 2026-05-07 23:41 | -33.96765 | 151.19077 | 30 ft | 22 kts | 189° |
| 2026-05-07 23:42 | -33.96921 | 151.19092 | 30 ft | 24 kts | 168° |
| 2026-05-07 23:42 | -33.97073 | 151.19133 | 30 ft | 19 kts | 165° |
| 2026-05-07 23:42 | -33.97121 | 151.19217 | 30 ft | 14 kts | 88° |
| 2026-05-07 23:42 | -33.97095 | 151.19336 | 28 ft | 11 kts | 57° |
| 2026-05-07 23:43 | -33.97029 | 151.19364 | 25 ft | 0 kts | 348° |
| 2026-05-07 23:43 | -33.97009 | 151.19358 | 26 ft | 22 kts | 348° |
| 2026-05-07 23:43 | -33.96606 | 151.19254 | 24 ft | 93 kts | 348° |
| 2026-05-07 23:43 | -33.95787 | 151.19042 | 31 ft | 145 kts | 348° |
| 2026-05-07 23:44 | -33.94795 | 151.18811 | 625 ft | 143 kts | 342° |
| 2026-05-07 23:44 | -33.93776 | 151.18764 | 1224 ft | 156 kts | 0° |
| 2026-05-07 23:44 | -33.92714 | 151.19254 | 1735 ft | 176 kts | 24° |
| 2026-05-07 23:44 | -33.91662 | 151.20225 | 1927 ft | 202 kts | 31° |
| 2026-05-07 23:45 | -33.90473 | 151.21293 | 2252 ft | 224 kts | 31° |
| 2026-05-07 23:45 | -33.89152 | 151.22432 | 2536 ft | 251 kts | 32° |
| 2026-05-07 23:45 | -33.87655 | 151.23711 | 2990 ft | 275 kts | 33° |
| 2026-05-07 23:45 | -33.86048 | 151.25090 | 3662 ft | 292 kts | 36° |
| 2026-05-07 23:46 | -33.84412 | 151.26538 | 4668 ft | 294 kts | 41° |
| 2026-05-07 23:46 | -33.83198 | 151.28272 | 5571 ft | 292 kts | 64° |
| 2026-05-07 23:46 | -33.82542 | 151.30540 | 6533 ft | 290 kts | 82° |
| 2026-05-07 23:46 | -33.82174 | 151.32460 | 7214 ft | 294 kts | 79° |
| 2026-05-07 23:47 | -33.81612 | 151.34814 | 8020 ft | 305 kts | 72° |
| 2026-05-07 23:47 | -33.80631 | 151.37093 | 8769 ft | 316 kts | 56° |
| 2026-05-07 23:47 | -33.79342 | 151.38970 | 9512 ft | 322 kts | 48° |
| 2026-05-07 23:47 | -33.77864 | 151.41035 | 10280 ft | 330 kts | 50° |
| 2026-05-07 23:48 | -33.76354 | 151.43239 | 10566 ft | 354 kts | 51° |
| 2026-05-07 23:48 | -33.74779 | 151.45595 | 11031 ft | 367 kts | 51° |
| 2026-05-07 23:48 | -33.73173 | 151.48018 | 11675 ft | 374 kts | 51° |
| 2026-05-07 23:48 | -33.71538 | 151.50480 | 12366 ft | 380 kts | 51° |
| 2026-05-07 23:49 | -33.69870 | 151.52972 | 13050 ft | 386 kts | 51° |
| 2026-05-07 23:49 | -33.68169 | 151.55497 | 13734 ft | 392 kts | 50° |
| 2026-05-07 23:49 | -33.66442 | 151.58053 | 14359 ft | 397 kts | 50° |
| 2026-05-07 23:49 | -33.64535 | 151.60471 | 14963 ft | 401 kts | 39° |
| 2026-05-07 23:50 | -33.62333 | 151.62451 | 15564 ft | 403 kts | 30° |
| 2026-05-07 23:50 | -33.59937 | 151.64309 | 16221 ft | 407 kts | 29° |
| 2026-05-07 23:50 | -33.57584 | 151.66140 | 16840 ft | 411 kts | 29° |
| 2026-05-07 23:50 | -33.55173 | 151.68021 | 17451 ft | 416 kts | 29° |
| 2026-05-07 23:51 | -33.52738 | 151.69929 | 18026 ft | 420 kts | 30° |
| 2026-05-07 23:51 | -33.50237 | 151.71759 | 18610 ft | 422 kts | 22° |
| 2026-05-07 23:51 | -33.47540 | 151.73135 | 19148 ft | 421 kts | 12° |
| 2026-05-07 23:51 | -33.44725 | 151.74090 | 19726 ft | 422 kts | 9° |
| 2026-05-07 23:52 | -33.41882 | 151.75007 | 20321 ft | 425 kts | 9° |
| 2026-05-07 23:52 | -33.39010 | 151.75933 | 20875 ft | 429 kts | 9° |
| 2026-05-07 23:52 | -33.36113 | 151.76869 | 21433 ft | 433 kts | 9° |
| 2026-05-07 23:52 | -33.33195 | 151.77809 | 21957 ft | 436 kts | 9° |
| 2026-05-07 23:53 | -33.30296 | 151.78742 | 22558 ft | 438 kts | 9° |
| 2026-05-07 23:53 | -33.27342 | 151.79700 | 23139 ft | 441 kts | 10° |
| 2026-05-07 23:53 | -33.24372 | 151.80664 | 23706 ft | 445 kts | 10° |
| 2026-05-07 23:53 | -33.21375 | 151.81633 | 24185 ft | 447 kts | 9° |
| 2026-05-07 23:54 | -33.18365 | 151.82600 | 24692 ft | 449 kts | 9° |
| 2026-05-07 23:54 | -33.15351 | 151.83568 | 25199 ft | 450 kts | 8° |
| 2026-05-07 23:54 | -33.12320 | 151.84538 | 25698 ft | 451 kts | 8° |
| 2026-05-07 23:54 | -33.09285 | 151.85512 | 26205 ft | 451 kts | 8° |
| 2026-05-07 23:55 | -33.06253 | 151.86489 | 26707 ft | 452 kts | 8° |
| 2026-05-07 23:55 | -33.03220 | 151.87471 | 27194 ft | 453 kts | 7° |
| 2026-05-07 23:55 | -33.00175 | 151.88453 | 27655 ft | 454 kts | 7° |
| 2026-05-07 23:55 | -32.97123 | 151.89433 | 28109 ft | 455 kts | 7° |
| 2026-05-07 23:56 | -32.94058 | 151.90415 | 28557 ft | 457 kts | 6° |
| 2026-05-07 23:56 | -32.91025 | 151.91380 | 29000 ft | 458 kts | 6° |
| 2026-05-07 23:56 | -32.87949 | 151.92361 | 29466 ft | 457 kts | 6° |
| 2026-05-07 23:56 | -32.84878 | 151.93345 | 30002 ft | 457 kts | 6° |
| 2026-05-07 23:57 | -32.81804 | 151.94331 | 30434 ft | 458 kts | 6° |
| 2026-05-07 23:57 | -32.78719 | 151.95320 | 30788 ft | 460 kts | 6° |
| 2026-05-07 23:57 | -32.75626 | 151.96307 | 31129 ft | 462 kts | 6° |
| 2026-05-07 23:57 | -32.72514 | 151.97293 | 31461 ft | 464 kts | 6° |
| 2026-05-07 23:58 | -32.69389 | 151.98284 | 31801 ft | 465 kts | 6° |
| 2026-05-07 23:58 | -32.66269 | 151.99279 | 32255 ft | 464 kts | 6° |
| 2026-05-07 23:58 | -32.63154 | 152.00273 | 32740 ft | 463 kts | 6° |
| 2026-05-07 23:58 | -32.60051 | 152.01258 | 33212 ft | 461 kts | 6° |
| 2026-05-07 23:59 | -32.56994 | 152.02230 | 33679 ft | 460 kts | 6° |
| 2026-05-07 23:59 | -32.53906 | 152.03211 | 34153 ft | 459 kts | 6° |
| 2026-05-07 23:59 | -32.50822 | 152.04191 | 34557 ft | 458 kts | 5° |
| 2026-05-07 23:59 | -32.47746 | 152.05166 | 34942 ft | 457 kts | 5° |
| 2026-05-08 00:00 | -32.44677 | 152.06137 | 35285 ft | 456 kts | 5° |
| 2026-05-08 00:00 | -32.41617 | 152.07105 | 35659 ft | 454 kts | 5° |
| 2026-05-08 00:00 | -32.38570 | 152.08072 | 36032 ft | 453 kts | 4° |
| 2026-05-08 00:00 | -32.35525 | 152.09034 | 36386 ft | 452 kts | 4° |
| 2026-05-08 00:01 | -32.32486 | 152.09993 | 36732 ft | 451 kts | 4° |
| 2026-05-08 00:01 | -32.29458 | 152.10947 | 37091 ft | 450 kts | 4° |
| 2026-05-08 00:01 | -32.26471 | 152.11884 | 37427 ft | 449 kts | 3° |
| 2026-05-08 00:01 | -32.23455 | 152.12833 | 37712 ft | 449 kts | 3° |
| 2026-05-08 00:02 | -32.20437 | 152.13785 | 37971 ft | 449 kts | 2° |
| 2026-05-08 00:02 | -32.17425 | 152.14731 | 38290 ft | 448 kts | 2° |
| 2026-05-08 00:02 | -32.14414 | 152.15675 | 38603 ft | 447 kts | 2° |
| 2026-05-08 00:02 | -32.11408 | 152.16621 | 38883 ft | 447 kts | 2° |
| 2026-05-08 00:03 | -32.08409 | 152.17568 | 39089 ft | 447 kts | 2° |
| 2026-05-08 00:03 | -32.05402 | 152.18515 | 39157 ft | 448 kts | 2° |
| 2026-05-08 00:03 | -31.99379 | 152.20402 | 39156 ft | 447 kts | 2° |
| 2026-05-08 00:04 | -31.93365 | 152.22283 | 39171 ft | 447 kts | 2° |
| 2026-05-08 00:04 | -31.88370 | 152.23847 | 39172 ft | 447 kts | 2° |